sensor_id;sensor_type;location;lat;lon;timestamp;temperature;humidity
71754;DHT22;59593;51.716;7.016;2023-05-02T00:01:39;11.40;99.90
71754;DHT22;59593;51.716;7.016;2023-05-02T00:04:05;11.40;99.90
71754;DHT22;59593;51.716;7.016;2023-05-02T00:06:31;11.40;99.90
71754;DHT22;59593;51.716;7.016;2023-05-02T00:08:57;11.30;99.90
71754;DHT22;59593;51.716;7.016;2023-05-02T00:11:22;11.30;99.90
71754;DHT22;59593;51.716;7.016;2023-05-02T00:13:48;11.30;99.90
71754;DHT22;59593;51.716;7.016;2023-05-02T00:16:14;11.30;99.90
71754;DHT22;59593;51.716;7.016;2023-05-02T00:18:40;11.30;99.90
71754;DHT22;59593;51.716;7.016;2023-05-02T00:21:05;11.30;99.90
71754;DHT22;59593;51.716;7.016;2023-05-02T00:23:32;11.20;99.90
71754;DHT22;59593;51.716;7.016;2023-05-02T00:25:57;11.20;99.90
71754;DHT22;59593;51.716;7.016;2023-05-02T00:28:23;11.10;99.90
71754;DHT22;59593;51.716;7.016;2023-05-02T00:30:48;11.20;99.90
71754;DHT22;59593;51.716;7.016;2023-05-02T00:33:14;11.10;99.90
71754;DHT22;59593;51.716;7.016;2023-05-02T00:35:40;11.20;99.90
71754;DHT22;59593;51.716;7.016;2023-05-02T00:38:06;11.10;99.90
71754;DHT22;59593;51.716;7.016;2023-05-02T00:40:42;11.00;99.90
71754;DHT22;59593;51.716;7.016;2023-05-02T00:43:08;10.90;99.90
71754;DHT22;59593;51.716;7.016;2023-05-02T00:45:33;10.80;99.90
71754;DHT22;59593;51.716;7.016;2023-05-02T00:47:59;10.80;99.90
71754;DHT22;59593;51.716;7.016;2023-05-02T00:50:26;10.80;99.90
71754;DHT22;59593;51.716;7.016;2023-05-02T00:52:54;10.80;99.90
71754;DHT22;59593;51.716;7.016;2023-05-02T00:55:20;10.80;99.90
71754;DHT22;59593;51.716;7.016;2023-05-02T00:57:45;10.70;99.90
71754;DHT22;59593;51.716;7.016;2023-05-02T01:00:11;10.80;99.90
71754;DHT22;59593;51.716;7.016;2023-05-02T01:02:47;10.80;99.90
71754;DHT22;59593;51.716;7.016;2023-05-02T01:05:20;10.90;99.90
71754;DHT22;59593;51.716;7.016;2023-05-02T01:10:52;11.10;99.90
71754;DHT22;59593;51.716;7.016;2023-05-02T01:13:27;11.30;99.90
71754;DHT22;59593;51.716;7.016;2023-05-02T01:15:55;11.30;99.90
71754;DHT22;59593;51.716;7.016;2023-05-02T01:18:24;11.30;99.90
71754;DHT22;59593;51.716;7.016;2023-05-02T01:21:01;11.20;99.90
71754;DHT22;59593;51.716;7.016;2023-05-02T01:23:55;11.30;99.90
71754;DHT22;59593;51.716;7.016;2023-05-02T01:26:29;11.20;99.90
71754;DHT22;59593;51.716;7.016;2023-05-02T01:29:00;11.10;99.90
71754;DHT22;59593;51.716;7.016;2023-05-02T01:31:35;11.10;99.90
71754;DHT22;59593;51.716;7.016;2023-05-02T01:34:02;11.20;99.90
71754;DHT22;59593;51.716;7.016;2023-05-02T01:36:30;11.20;99.90
71754;DHT22;59593;51.716;7.016;2023-05-02T01:38:58;11.10;99.90
71754;DHT22;59593;51.716;7.016;2023-05-02T01:41:26;11.10;99.90
71754;DHT22;59593;51.716;7.016;2023-05-02T01:43:55;11.20;99.90
71754;DHT22;59593;51.716;7.016;2023-05-02T01:46:21;11.30;99.90
71754;DHT22;59593;51.716;7.016;2023-05-02T01:48:50;11.30;99.90
71754;DHT22;59593;51.716;7.016;2023-05-02T01:51:17;11.20;99.90
71754;DHT22;59593;51.716;7.016;2023-05-02T01:53:47;11.10;99.90
71754;DHT22;59593;51.716;7.016;2023-05-02T01:56:16;11.30;99.90
71754;DHT22;59593;51.716;7.016;2023-05-02T01:58:42;11.40;99.90
71754;DHT22;59593;51.716;7.016;2023-05-02T02:01:09;11.40;99.90
71754;DHT22;59593;51.716;7.016;2023-05-02T02:03:35;11.30;99.90
71754;DHT22;59593;51.716;7.016;2023-05-02T02:06:02;11.30;99.90
71754;DHT22;59593;51.716;7.016;2023-05-02T02:08:28;11.40;99.90
71754;DHT22;59593;51.716;7.016;2023-05-02T02:10:58;11.40;99.90
71754;DHT22;59593;51.716;7.016;2023-05-02T02:13:31;11.40;99.90
71754;DHT22;59593;51.716;7.016;2023-05-02T02:15:59;11.20;99.90
71754;DHT22;59593;51.716;7.016;2023-05-02T02:18:27;11.20;99.90
71754;DHT22;59593;51.716;7.016;2023-05-02T02:20:54;11.10;99.90
71754;DHT22;59593;51.716;7.016;2023-05-02T02:23:25;11.30;99.90
71754;DHT22;59593;51.716;7.016;2023-05-02T02:25:52;11.20;99.90
71754;DHT22;59593;51.716;7.016;2023-05-02T02:28:19;11.30;99.90
71754;DHT22;59593;51.716;7.016;2023-05-02T02:30:45;11.30;99.90
71754;DHT22;59593;51.716;7.016;2023-05-02T02:33:10;11.40;99.90
71754;DHT22;59593;51.716;7.016;2023-05-02T02:35:46;11.40;99.90
71754;DHT22;59593;51.716;7.016;2023-05-02T02:38:21;11.40;99.90
71754;DHT22;59593;51.716;7.016;2023-05-02T02:40:55;11.40;99.90
71754;DHT22;59593;51.716;7.016;2023-05-02T02:43:52;11.30;99.90
71754;DHT22;59593;51.716;7.016;2023-05-02T02:48:56;11.50;99.90
71754;DHT22;59593;51.716;7.016;2023-05-02T02:51:31;11.50;99.90
71754;DHT22;59593;51.716;7.016;2023-05-02T02:54:10;11.50;99.90
71754;DHT22;59593;51.716;7.016;2023-05-02T02:56:41;11.60;99.90
71754;DHT22;59593;51.716;7.016;2023-05-02T02:59:14;11.60;99.90
71754;DHT22;59593;51.716;7.016;2023-05-02T03:01:43;11.60;99.90
71754;DHT22;59593;51.716;7.016;2023-05-02T03:04:12;11.50;99.90
71754;DHT22;59593;51.716;7.016;2023-05-02T03:06:38;11.40;99.90
71754;DHT22;59593;51.716;7.016;2023-05-02T03:09:03;11.50;99.90
71754;DHT22;59593;51.716;7.016;2023-05-02T03:11:29;11.60;99.90
71754;DHT22;59593;51.716;7.016;2023-05-02T03:13:55;11.50;99.90
71754;DHT22;59593;51.716;7.016;2023-05-02T03:16:32;11.50;99.90
71754;DHT22;59593;51.716;7.016;2023-05-02T03:18:58;11.40;99.90
71754;DHT22;59593;51.716;7.016;2023-05-02T03:21:24;11.50;99.90
71754;DHT22;59593;51.716;7.016;2023-05-02T03:23:49;11.60;99.90
71754;DHT22;59593;51.716;7.016;2023-05-02T03:26:16;11.70;99.90
71754;DHT22;59593;51.716;7.016;2023-05-02T03:28:41;11.70;99.90
71754;DHT22;59593;51.716;7.016;2023-05-02T03:31:11;11.60;99.90
71754;DHT22;59593;51.716;7.016;2023-05-02T03:33:36;11.60;99.90
71754;DHT22;59593;51.716;7.016;2023-05-02T03:36:02;11.40;99.90
71754;DHT22;59593;51.716;7.016;2023-05-02T03:38:29;11.50;99.90
71754;DHT22;59593;51.716;7.016;2023-05-02T03:40:56;11.50;99.90
71754;DHT22;59593;51.716;7.016;2023-05-02T03:43:22;11.40;99.90
71754;DHT22;59593;51.716;7.016;2023-05-02T03:45:48;11.60;99.90
71754;DHT22;59593;51.716;7.016;2023-05-02T03:48:14;11.50;99.90
71754;DHT22;59593;51.716;7.016;2023-05-02T03:50:39;11.40;99.90
71754;DHT22;59593;51.716;7.016;2023-05-02T03:53:05;11.30;99.90
71754;DHT22;59593;51.716;7.016;2023-05-02T03:55:32;11.30;99.90
71754;DHT22;59593;51.716;7.016;2023-05-02T03:57:57;11.30;99.90
71754;DHT22;59593;51.716;7.016;2023-05-02T04:00:23;11.20;99.90
71754;DHT22;59593;51.716;7.016;2023-05-02T04:02:49;11.20;99.90
71754;DHT22;59593;51.716;7.016;2023-05-02T04:05:14;11.30;99.90
71754;DHT22;59593;51.716;7.016;2023-05-02T04:07:40;11.20;99.90
71754;DHT22;59593;51.716;7.016;2023-05-02T04:10:06;11.10;99.90
71754;DHT22;59593;51.716;7.016;2023-05-02T04:12:32;11.10;99.90
71754;DHT22;59593;51.716;7.016;2023-05-02T04:14:58;11.10;99.90
71754;DHT22;59593;51.716;7.016;2023-05-02T04:17:23;11.00;99.90
71754;DHT22;59593;51.716;7.016;2023-05-02T04:19:49;11.10;99.90
71754;DHT22;59593;51.716;7.016;2023-05-02T04:22:15;11.10;99.90
71754;DHT22;59593;51.716;7.016;2023-05-02T04:24:41;11.10;99.90
71754;DHT22;59593;51.716;7.016;2023-05-02T04:27:06;11.10;99.90
71754;DHT22;59593;51.716;7.016;2023-05-02T04:29:32;11.00;99.90
71754;DHT22;59593;51.716;7.016;2023-05-02T04:31:57;10.80;99.90
71754;DHT22;59593;51.716;7.016;2023-05-02T04:34:23;10.50;99.90
71754;DHT22;59593;51.716;7.016;2023-05-02T04:36:49;10.40;99.90
71754;DHT22;59593;51.716;7.016;2023-05-02T04:39:14;10.30;99.90
71754;DHT22;59593;51.716;7.016;2023-05-02T04:41:40;10.40;99.90
71754;DHT22;59593;51.716;7.016;2023-05-02T04:44:06;10.30;99.90
71754;DHT22;59593;51.716;7.016;2023-05-02T04:46:31;10.30;99.90
71754;DHT22;59593;51.716;7.016;2023-05-02T04:48:57;10.20;99.90
71754;DHT22;59593;51.716;7.016;2023-05-02T04:51:22;10.30;99.90
71754;DHT22;59593;51.716;7.016;2023-05-02T04:53:48;10.30;99.90
71754;DHT22;59593;51.716;7.016;2023-05-02T04:56:14;10.30;99.90
71754;DHT22;59593;51.716;7.016;2023-05-02T04:58:40;10.50;99.90
71754;DHT22;59593;51.716;7.016;2023-05-02T05:01:05;10.40;99.90
71754;DHT22;59593;51.716;7.016;2023-05-02T05:03:31;10.40;99.90
71754;DHT22;59593;51.716;7.016;2023-05-02T05:05:57;10.40;99.90
71754;DHT22;59593;51.716;7.016;2023-05-02T05:08:23;10.60;99.90
71754;DHT22;59593;51.716;7.016;2023-05-02T05:10:49;10.50;99.90
71754;DHT22;59593;51.716;7.016;2023-05-02T05:13:15;10.50;99.90
71754;DHT22;59593;51.716;7.016;2023-05-02T05:15:43;10.60;99.90
71754;DHT22;59593;51.716;7.016;2023-05-02T05:18:12;10.40;99.90
71754;DHT22;59593;51.716;7.016;2023-05-02T05:20:37;10.40;99.90
71754;DHT22;59593;51.716;7.016;2023-05-02T05:23:03;10.40;99.90
71754;DHT22;59593;51.716;7.016;2023-05-02T05:25:29;10.30;99.90
71754;DHT22;59593;51.716;7.016;2023-05-02T05:27:54;10.30;99.90
71754;DHT22;59593;51.716;7.016;2023-05-02T05:30:22;10.40;99.90
71754;DHT22;59593;51.716;7.016;2023-05-02T05:32:48;10.40;99.90
71754;DHT22;59593;51.716;7.016;2023-05-02T05:35:13;10.50;99.90
71754;DHT22;59593;51.716;7.016;2023-05-02T05:37:39;10.50;99.90
71754;DHT22;59593;51.716;7.016;2023-05-02T05:40:08;10.60;99.90
71754;DHT22;59593;51.716;7.016;2023-05-02T05:42:34;10.80;99.90
71754;DHT22;59593;51.716;7.016;2023-05-02T05:44:59;10.90;99.90
71754;DHT22;59593;51.716;7.016;2023-05-02T05:47:25;11.00;99.90
71754;DHT22;59593;51.716;7.016;2023-05-02T05:49:54;11.00;99.90
71754;DHT22;59593;51.716;7.016;2023-05-02T05:52:20;11.10;99.90
71754;DHT22;59593;51.716;7.016;2023-05-02T05:54:45;10.90;99.90
71754;DHT22;59593;51.716;7.016;2023-05-02T05:57:11;10.90;99.90
71754;DHT22;59593;51.716;7.016;2023-05-02T05:59:36;11.00;99.90
71754;DHT22;59593;51.716;7.016;2023-05-02T06:02:02;11.00;99.90
71754;DHT22;59593;51.716;7.016;2023-05-02T06:04:28;11.00;99.90
71754;DHT22;59593;51.716;7.016;2023-05-02T06:06:54;11.10;99.90
71754;DHT22;59593;51.716;7.016;2023-05-02T06:09:20;10.90;99.90
71754;DHT22;59593;51.716;7.016;2023-05-02T06:11:45;10.80;99.90
71754;DHT22;59593;51.716;7.016;2023-05-02T06:14:11;10.70;99.90
71754;DHT22;59593;51.716;7.016;2023-05-02T06:16:37;10.80;99.90
71754;DHT22;59593;51.716;7.016;2023-05-02T06:19:02;10.60;99.90
71754;DHT22;59593;51.716;7.016;2023-05-02T06:21:28;10.70;99.90
71754;DHT22;59593;51.716;7.016;2023-05-02T06:23:53;10.80;99.90
71754;DHT22;59593;51.716;7.016;2023-05-02T06:26:19;10.80;99.90
71754;DHT22;59593;51.716;7.016;2023-05-02T06:28:46;10.60;99.90
71754;DHT22;59593;51.716;7.016;2023-05-02T06:31:11;10.40;99.90
71754;DHT22;59593;51.716;7.016;2023-05-02T06:33:37;10.30;99.90
71754;DHT22;59593;51.716;7.016;2023-05-02T06:36:02;10.20;99.90
71754;DHT22;59593;51.716;7.016;2023-05-02T06:38:28;10.40;99.90
71754;DHT22;59593;51.716;7.016;2023-05-02T06:40:54;10.50;99.90
71754;DHT22;59593;51.716;7.016;2023-05-02T06:43:20;10.20;99.90
71754;DHT22;59593;51.716;7.016;2023-05-02T06:45:45;9.90;99.90
71754;DHT22;59593;51.716;7.016;2023-05-02T06:48:11;9.60;99.90
71754;DHT22;59593;51.716;7.016;2023-05-02T06:50:37;9.40;99.90
71754;DHT22;59593;51.716;7.016;2023-05-02T06:53:05;9.30;99.90
71754;DHT22;59593;51.716;7.016;2023-05-02T06:55:31;9.40;99.90
71754;DHT22;59593;51.716;7.016;2023-05-02T06:57:57;9.30;99.90
71754;DHT22;59593;51.716;7.016;2023-05-02T07:00:23;9.30;99.90
71754;DHT22;59593;51.716;7.016;2023-05-02T07:02:49;9.30;99.90
71754;DHT22;59593;51.716;7.016;2023-05-02T07:05:15;9.20;99.90
71754;DHT22;59593;51.716;7.016;2023-05-02T07:07:41;9.20;99.90
71754;DHT22;59593;51.716;7.016;2023-05-02T07:10:07;9.30;99.90
71754;DHT22;59593;51.716;7.016;2023-05-02T07:12:33;9.30;99.90
71754;DHT22;59593;51.716;7.016;2023-05-02T07:14:59;9.30;99.90
71754;DHT22;59593;51.716;7.016;2023-05-02T07:17:24;9.40;99.90
71754;DHT22;59593;51.716;7.016;2023-05-02T07:19:51;9.30;99.90
71754;DHT22;59593;51.716;7.016;2023-05-02T07:22:16;9.20;99.90
71754;DHT22;59593;51.716;7.016;2023-05-02T07:24:42;9.30;99.90
71754;DHT22;59593;51.716;7.016;2023-05-02T07:27:09;9.30;99.90
71754;DHT22;59593;51.716;7.016;2023-05-02T07:29:34;9.40;99.90
71754;DHT22;59593;51.716;7.016;2023-05-02T07:32:01;9.20;99.90
71754;DHT22;59593;51.716;7.016;2023-05-02T07:34:26;9.10;99.90
71754;DHT22;59593;51.716;7.016;2023-05-02T07:36:52;9.00;99.90
71754;DHT22;59593;51.716;7.016;2023-05-02T07:39:18;8.80;99.90
71754;DHT22;59593;51.716;7.016;2023-05-02T07:41:44;8.60;99.90
71754;DHT22;59593;51.716;7.016;2023-05-02T07:44:10;8.50;99.90
71754;DHT22;59593;51.716;7.016;2023-05-02T07:46:36;8.40;99.90
71754;DHT22;59593;51.716;7.016;2023-05-02T07:49:01;8.40;99.90
71754;DHT22;59593;51.716;7.016;2023-05-02T07:51:27;8.50;99.90
71754;DHT22;59593;51.716;7.016;2023-05-02T07:53:53;8.50;99.90
71754;DHT22;59593;51.716;7.016;2023-05-02T07:56:23;8.50;99.90
71754;DHT22;59593;51.716;7.016;2023-05-02T07:58:48;8.60;99.90
71754;DHT22;59593;51.716;7.016;2023-05-02T08:01:16;8.50;99.90
71754;DHT22;59593;51.716;7.016;2023-05-02T08:03:41;8.60;99.90
71754;DHT22;59593;51.716;7.016;2023-05-02T08:06:07;8.50;99.90
71754;DHT22;59593;51.716;7.016;2023-05-02T08:08:34;8.50;99.90
71754;DHT22;59593;51.716;7.016;2023-05-02T08:10:59;8.50;99.90
71754;DHT22;59593;51.716;7.016;2023-05-02T08:13:25;8.40;99.90
71754;DHT22;59593;51.716;7.016;2023-05-02T08:15:51;8.30;99.90
71754;DHT22;59593;51.716;7.016;2023-05-02T08:18:25;8.40;99.90
71754;DHT22;59593;51.716;7.016;2023-05-02T08:20:50;8.50;99.90
71754;DHT22;59593;51.716;7.016;2023-05-02T08:23:16;8.30;99.90
71754;DHT22;59593;51.716;7.016;2023-05-02T08:25:41;8.30;99.90
71754;DHT22;59593;51.716;7.016;2023-05-02T08:28:07;8.50;99.90
71754;DHT22;59593;51.716;7.016;2023-05-02T08:30:33;8.40;99.90
71754;DHT22;59593;51.716;7.016;2023-05-02T08:32:58;8.40;99.90
71754;DHT22;59593;51.716;7.016;2023-05-02T08:35:24;8.70;99.90
71754;DHT22;59593;51.716;7.016;2023-05-02T08:37:49;8.70;99.90
71754;DHT22;59593;51.716;7.016;2023-05-02T08:40:16;8.90;99.90
71754;DHT22;59593;51.716;7.016;2023-05-02T08:42:42;9.40;99.90
71754;DHT22;59593;51.716;7.016;2023-05-02T08:45:11;9.10;99.90
71754;DHT22;59593;51.716;7.016;2023-05-02T08:47:41;9.30;99.90
71754;DHT22;59593;51.716;7.016;2023-05-02T08:50:10;9.50;99.90
71754;DHT22;59593;51.716;7.016;2023-05-02T08:52:36;9.30;99.90
71754;DHT22;59593;51.716;7.016;2023-05-02T08:55:05;9.40;99.90
71754;DHT22;59593;51.716;7.016;2023-05-02T08:57:31;9.60;99.90
71754;DHT22;59593;51.716;7.016;2023-05-02T08:59:57;9.80;99.90
71754;DHT22;59593;51.716;7.016;2023-05-02T09:02:58;9.50;99.90
71754;DHT22;59593;51.716;7.016;2023-05-02T09:05:26;9.60;99.90
71754;DHT22;59593;51.716;7.016;2023-05-02T09:07:52;9.50;99.90
71754;DHT22;59593;51.716;7.016;2023-05-02T09:10:17;9.60;99.90
71754;DHT22;59593;51.716;7.016;2023-05-02T09:12:43;9.60;99.90
71754;DHT22;59593;51.716;7.016;2023-05-02T09:17:46;10.00;99.90
71754;DHT22;59593;51.716;7.016;2023-05-02T09:20:15;10.20;99.90
71754;DHT22;59593;51.716;7.016;2023-05-02T09:22:48;10.40;99.90
71754;DHT22;59593;51.716;7.016;2023-05-02T09:25:15;10.30;99.90
71754;DHT22;59593;51.716;7.016;2023-05-02T09:27:51;10.40;99.90
71754;DHT22;59593;51.716;7.016;2023-05-02T09:30:19;10.10;99.90
71754;DHT22;59593;51.716;7.016;2023-05-02T09:32:46;10.20;99.90
71754;DHT22;59593;51.716;7.016;2023-05-02T09:35:13;10.30;99.90
71754;DHT22;59593;51.716;7.016;2023-05-02T09:37:57;10.30;99.90
71754;DHT22;59593;51.716;7.016;2023-05-02T09:40:23;10.30;99.90
71754;DHT22;59593;51.716;7.016;2023-05-02T09:42:49;10.20;99.90
71754;DHT22;59593;51.716;7.016;2023-05-02T09:45:33;10.50;99.90
71754;DHT22;59593;51.716;7.016;2023-05-02T09:48:01;10.60;99.90
71754;DHT22;59593;51.716;7.016;2023-05-02T09:50:36;11.00;99.90
71754;DHT22;59593;51.716;7.016;2023-05-02T09:53:07;10.90;99.90
71754;DHT22;59593;51.716;7.016;2023-05-02T09:55:34;10.90;99.90
71754;DHT22;59593;51.716;7.016;2023-05-02T09:58:00;11.00;99.90
71754;DHT22;59593;51.716;7.016;2023-05-02T10:00:42;11.30;99.90
71754;DHT22;59593;51.716;7.016;2023-05-02T10:03:09;10.70;99.90
71754;DHT22;59593;51.716;7.016;2023-05-02T10:05:36;10.60;99.90
71754;DHT22;59593;51.716;7.016;2023-05-02T10:08:07;10.60;99.90
71754;DHT22;59593;51.716;7.016;2023-05-02T10:10:37;10.60;99.90
71754;DHT22;59593;51.716;7.016;2023-05-02T10:13:04;10.70;99.90
71754;DHT22;59593;51.716;7.016;2023-05-02T10:15:31;10.90;99.90
71754;DHT22;59593;51.716;7.016;2023-05-02T10:17:59;10.90;99.90
71754;DHT22;59593;51.716;7.016;2023-05-02T10:20:34;11.10;99.90
71754;DHT22;59593;51.716;7.016;2023-05-02T10:23:00;11.70;99.90
71754;DHT22;59593;51.716;7.016;2023-05-02T10:25:28;11.70;99.90
71754;DHT22;59593;51.716;7.016;2023-05-02T10:27:57;11.30;99.90
71754;DHT22;59593;51.716;7.016;2023-05-02T10:30:24;11.40;99.90
71754;DHT22;59593;51.716;7.016;2023-05-02T10:32:51;11.70;99.90
71754;DHT22;59593;51.716;7.016;2023-05-02T10:35:19;11.10;99.90
71754;DHT22;59593;51.716;7.016;2023-05-02T10:37:46;11.30;99.90
71754;DHT22;59593;51.716;7.016;2023-05-02T10:40:13;11.30;99.90
71754;DHT22;59593;51.716;7.016;2023-05-02T10:42:43;11.10;99.90
71754;DHT22;59593;51.716;7.016;2023-05-02T10:45:35;11.50;99.90
71754;DHT22;59593;51.716;7.016;2023-05-02T10:48:17;11.10;99.90
71754;DHT22;59593;51.716;7.016;2023-05-02T10:58:33;11.70;99.90
71754;DHT22;59593;51.716;7.016;2023-05-02T11:04:06;12.10;99.90
71754;DHT22;59593;51.716;7.016;2023-05-02T11:11:48;12.10;99.90
71754;DHT22;59593;51.716;7.016;2023-05-02T11:22:32;11.70;99.90
71754;DHT22;59593;51.716;7.016;2023-05-02T11:24:57;11.50;99.90
71754;DHT22;59593;51.716;7.016;2023-05-02T11:30:07;11.50;99.90
71754;DHT22;59593;51.716;7.016;2023-05-02T11:35:25;11.60;99.90
71754;DHT22;59593;51.716;7.016;2023-05-02T11:38:08;12.40;99.90
71754;DHT22;59593;51.716;7.016;2023-05-02T11:40:34;12.50;99.90
71754;DHT22;59593;51.716;7.016;2023-05-02T11:43:00;11.60;99.90
71754;DHT22;59593;51.716;7.016;2023-05-02T11:45:36;12.10;99.90
71754;DHT22;59593;51.716;7.016;2023-05-02T11:48:07;12.50;99.90
71754;DHT22;59593;51.716;7.016;2023-05-02T11:50:43;12.70;99.90
71754;DHT22;59593;51.716;7.016;2023-05-02T11:53:13;12.40;99.90
71754;DHT22;59593;51.716;7.016;2023-05-02T11:55:47;13.00;99.90
71754;DHT22;59593;51.716;7.016;2023-05-02T11:58:18;13.10;99.90
71754;DHT22;59593;51.716;7.016;2023-05-02T12:00:45;13.40;99.90
71754;DHT22;59593;51.716;7.016;2023-05-02T12:03:31;13.30;99.90
71754;DHT22;59593;51.716;7.016;2023-05-02T12:06:08;12.60;99.90
71754;DHT22;59593;51.716;7.016;2023-05-02T12:08:37;12.80;99.90
71754;DHT22;59593;51.716;7.016;2023-05-02T12:11:02;13.40;99.90
71754;DHT22;59593;51.716;7.016;2023-05-02T12:13:28;12.50;99.90
71754;DHT22;59593;51.716;7.016;2023-05-02T12:15:54;12.30;99.90
71754;DHT22;59593;51.716;7.016;2023-05-02T12:18:21;12.10;99.90
71754;DHT22;59593;51.716;7.016;2023-05-02T12:20:49;11.70;99.90
71754;DHT22;59593;51.716;7.016;2023-05-02T12:23:16;11.90;99.90
71754;DHT22;59593;51.716;7.016;2023-05-02T12:25:42;12.90;99.90
71754;DHT22;59593;51.716;7.016;2023-05-02T12:28:09;14.00;99.90
71754;DHT22;59593;51.716;7.016;2023-05-02T12:30:36;13.10;99.90
71754;DHT22;59593;51.716;7.016;2023-05-02T12:33:06;12.80;99.90
71754;DHT22;59593;51.716;7.016;2023-05-02T12:35:33;13.10;99.90
71754;DHT22;59593;51.716;7.016;2023-05-02T12:40:35;13.50;99.90
71754;DHT22;59593;51.716;7.016;2023-05-02T12:43:03;13.80;99.90
71754;DHT22;59593;51.716;7.016;2023-05-02T12:45:31;14.90;99.90
71754;DHT22;59593;51.716;7.016;2023-05-02T12:48:00;15.00;99.90
71754;DHT22;59593;51.716;7.016;2023-05-02T12:50:39;14.90;99.90
71754;DHT22;59593;51.716;7.016;2023-05-02T12:53:04;15.20;99.90
71754;DHT22;59593;51.716;7.016;2023-05-02T12:55:32;15.10;99.90
71754;DHT22;59593;51.716;7.016;2023-05-02T12:58:08;15.20;99.90
71754;DHT22;59593;51.716;7.016;2023-05-02T13:00:37;14.10;99.90
71754;DHT22;59593;51.716;7.016;2023-05-02T13:03:03;13.60;99.90
71754;DHT22;59593;51.716;7.016;2023-05-02T13:05:29;13.30;99.90
71754;DHT22;59593;51.716;7.016;2023-05-02T13:07:54;13.30;99.90
71754;DHT22;59593;51.716;7.016;2023-05-02T13:10:24;13.10;99.90
71754;DHT22;59593;51.716;7.016;2023-05-02T13:12:51;12.50;99.90
71754;DHT22;59593;51.716;7.016;2023-05-02T13:15:17;12.90;99.90
71754;DHT22;59593;51.716;7.016;2023-05-02T13:17:43;13.00;99.90
71754;DHT22;59593;51.716;7.016;2023-05-02T13:20:09;12.50;99.90
71754;DHT22;59593;51.716;7.016;2023-05-02T13:22:35;12.80;99.90
71754;DHT22;59593;51.716;7.016;2023-05-02T13:25:04;12.80;99.90
71754;DHT22;59593;51.716;7.016;2023-05-02T13:27:31;12.90;99.90
71754;DHT22;59593;51.716;7.016;2023-05-02T13:29:58;12.90;99.90
71754;DHT22;59593;51.716;7.016;2023-05-02T13:32:24;13.30;99.90
71754;DHT22;59593;51.716;7.016;2023-05-02T13:34:50;14.10;99.90
71754;DHT22;59593;51.716;7.016;2023-05-02T13:37:15;14.80;99.90
71754;DHT22;59593;51.716;7.016;2023-05-02T13:39:41;15.00;99.90
71754;DHT22;59593;51.716;7.016;2023-05-02T13:42:07;14.90;99.90
71754;DHT22;59593;51.716;7.016;2023-05-02T13:44:32;15.60;99.60
71754;DHT22;59593;51.716;7.016;2023-05-02T13:46:58;15.80;96.20
71754;DHT22;59593;51.716;7.016;2023-05-02T13:49:24;15.80;95.90
71754;DHT22;59593;51.716;7.016;2023-05-02T13:51:49;16.00;96.50
71754;DHT22;59593;51.716;7.016;2023-05-02T13:54:15;15.10;97.30
71754;DHT22;59593;51.716;7.016;2023-05-02T13:56:41;14.60;98.70
71754;DHT22;59593;51.716;7.016;2023-05-02T13:59:08;13.50;99.50
71754;DHT22;59593;51.716;7.016;2023-05-02T14:01:34;13.80;99.50
71754;DHT22;59593;51.716;7.016;2023-05-02T14:03:59;13.50;99.60
71754;DHT22;59593;51.716;7.016;2023-05-02T14:06:31;13.80;99.50
71754;DHT22;59593;51.716;7.016;2023-05-02T14:08:57;14.30;99.30
71754;DHT22;59593;51.716;7.016;2023-05-02T14:11:22;14.60;97.60
71754;DHT22;59593;51.716;7.016;2023-05-02T14:13:48;13.70;98.40
71754;DHT22;59593;51.716;7.016;2023-05-02T14:16:13;13.90;99.90
71754;DHT22;59593;51.716;7.016;2023-05-02T14:18:39;14.20;98.70
71754;DHT22;59593;51.716;7.016;2023-05-02T14:21:04;14.00;97.30
71754;DHT22;59593;51.716;7.016;2023-05-02T14:23:30;14.30;97.40
71754;DHT22;59593;51.716;7.016;2023-05-02T14:25:56;15.20;97.30
71754;DHT22;59593;51.716;7.016;2023-05-02T14:28:22;15.80;95.90
71754;DHT22;59593;51.716;7.016;2023-05-02T14:30:48;14.70;96.20
71754;DHT22;59593;51.716;7.016;2023-05-02T14:33:14;15.80;97.40
71754;DHT22;59593;51.716;7.016;2023-05-02T14:35:39;16.40;95.60
71754;DHT22;59593;51.716;7.016;2023-05-02T14:38:05;15.00;95.50
71754;DHT22;59593;51.716;7.016;2023-05-02T14:40:31;15.00;96.40
71754;DHT22;59593;51.716;7.016;2023-05-02T14:42:57;15.20;95.50
71754;DHT22;59593;51.716;7.016;2023-05-02T14:45:23;14.00;97.30
71754;DHT22;59593;51.716;7.016;2023-05-02T14:47:48;14.30;97.90
71754;DHT22;59593;51.716;7.016;2023-05-02T14:50:15;13.50;97.60
71754;DHT22;59593;51.716;7.016;2023-05-02T14:52:41;13.40;98.30
71754;DHT22;59593;51.716;7.016;2023-05-02T14:55:07;13.20;98.70
71754;DHT22;59593;51.716;7.016;2023-05-02T14:57:33;13.80;98.90
71754;DHT22;59593;51.716;7.016;2023-05-02T14:59:59;14.40;97.70
71754;DHT22;59593;51.716;7.016;2023-05-02T15:02:25;14.40;96.90
71754;DHT22;59593;51.716;7.016;2023-05-02T15:04:50;14.90;97.10
71754;DHT22;59593;51.716;7.016;2023-05-02T15:07:16;15.70;95.30
71754;DHT22;59593;51.716;7.016;2023-05-02T15:09:42;16.10;96.60
71754;DHT22;59593;51.716;7.016;2023-05-02T15:12:07;15.80;93.70
71754;DHT22;59593;51.716;7.016;2023-05-02T15:14:33;13.90;96.70
71754;DHT22;59593;51.716;7.016;2023-05-02T15:16:58;13.50;98.50
71754;DHT22;59593;51.716;7.016;2023-05-02T15:19:24;13.40;98.60
71754;DHT22;59593;51.716;7.016;2023-05-02T15:21:50;13.30;99.30
71754;DHT22;59593;51.716;7.016;2023-05-02T15:24:21;13.20;99.80
71754;DHT22;59593;51.716;7.016;2023-05-02T15:26:49;13.60;99.70
71754;DHT22;59593;51.716;7.016;2023-05-02T15:29:14;13.20;99.90
71754;DHT22;59593;51.716;7.016;2023-05-02T15:31:40;13.50;99.00
71754;DHT22;59593;51.716;7.016;2023-05-02T15:34:06;14.20;99.20
71754;DHT22;59593;51.716;7.016;2023-05-02T15:36:31;14.80;98.60
71754;DHT22;59593;51.716;7.016;2023-05-02T15:38:58;15.10;95.40
71754;DHT22;59593;51.716;7.016;2023-05-02T15:41:24;14.10;95.90
71754;DHT22;59593;51.716;7.016;2023-05-02T15:43:52;14.00;97.10
71754;DHT22;59593;51.716;7.016;2023-05-02T15:46:18;13.60;97.20
71754;DHT22;59593;51.716;7.016;2023-05-02T15:48:43;13.50;97.80
71754;DHT22;59593;51.716;7.016;2023-05-02T15:51:09;14.00;96.40
71754;DHT22;59593;51.716;7.016;2023-05-02T15:53:36;14.00;96.50
71754;DHT22;59593;51.716;7.016;2023-05-02T15:56:07;13.90;95.60
71754;DHT22;59593;51.716;7.016;2023-05-02T15:58:33;14.70;97.00
71754;DHT22;59593;51.716;7.016;2023-05-02T16:00:58;15.40;95.90
71754;DHT22;59593;51.716;7.016;2023-05-02T16:03:24;15.20;94.30
71754;DHT22;59593;51.716;7.016;2023-05-02T16:05:53;14.10;95.60
71754;DHT22;59593;51.716;7.016;2023-05-02T16:08:19;14.10;96.30
71754;DHT22;59593;51.716;7.016;2023-05-02T16:10:45;14.00;97.30
71754;DHT22;59593;51.716;7.016;2023-05-02T16:13:11;14.30;95.70
71754;DHT22;59593;51.716;7.016;2023-05-02T16:15:37;14.10;95.20